KSLC

Salt Lake City International Airport

Salt Lake City, Utah, USA
METAR KSLC 162300Z 26005KT 10SM FEW170 SCT200 BKN250 03/M01 A3022 RMK AO2 T00331011 CHINO NW RNWY VISNO NW RNWY $
Observed Flight Rules
Dec-16 @ 23:00 UTC (11 minutes ago) Visual Flight Rules
Wind Visibility Clouds
260° at 5 knots 10 miles
  • Few at 17,000' AGL
  • Scattered at 20,000' AGL
  • Broken at 25,000' AGL
Temperatures Readings
Current 3°C / 37°F
Dewpoint -1°C / 30°F
Humidity 75%
Altimeter 30.22" Hg
Pressure 1023 hPa
Elevation 1286
METAR KSLC 162300Z 26005KT 10SM FEW170 SCT200 BKN250 03/M01 A3022 RMK AO2 T00331011 CHINO NW RNWY VISNO NW RNWY $
Observed Flight Rules
Dec-16 @ 23:00 UTC
(11 minutes ago)
VFR
Wind Visibility
260° at 5 knots 10 miles
Clouds
  • Few at 17,000' AGL
  • Scattered at 20,000' AGL
  • Broken at 25,000' AGL
Temperature Dewpoint
3°C / 37°F -1°C / 30°F
Humidity Altimeter Pressure
75% 30.22" Hg 1023 hPa